createdAt,value
2023-11-12T00:10:36.935Z,2.47
2023-11-12T00:25:40.937Z,2.27
2023-11-12T00:40:44.794Z,2.00
2023-11-12T00:55:49.448Z,2.26
2023-11-12T01:10:53.930Z,2.14
2023-11-12T01:25:58.043Z,1.88
2023-11-12T01:41:02.688Z,1.31
2023-11-12T01:56:09.339Z,1.66
2023-11-12T02:11:13.167Z,1.96
2023-11-12T02:26:17.151Z,2.48
2023-11-12T02:41:20.505Z,2.68
2023-11-12T02:56:25.423Z,2.22
2023-11-12T03:11:29.105Z,2.62
2023-11-12T03:26:32.544Z,2.79
2023-11-12T03:41:37.403Z,2.95
2023-11-12T03:56:40.736Z,3.01
2023-11-12T04:11:43.868Z,3.05
2023-11-12T04:26:47.136Z,3.21
2023-11-12T04:41:50.348Z,3.26
2023-11-12T04:56:53.698Z,3.82
2023-11-12T05:11:58.039Z,3.63
2023-11-12T05:27:01.641Z,3.52
2023-11-12T05:42:05.576Z,3.99
2023-11-12T05:57:08.913Z,4.26
2023-11-12T06:12:12.212Z,4.03
2023-11-12T06:27:16.192Z,3.96
2023-11-12T06:42:19.660Z,4.20
2023-11-12T06:57:22.961Z,4.10
2023-11-12T07:12:27.652Z,4.36
2023-11-12T07:27:30.969Z,4.29
2023-11-12T07:42:35.896Z,4.34
2023-11-12T07:57:39.756Z,4.23
2023-11-12T08:12:43.289Z,4.50
2023-11-12T08:27:46.554Z,4.72
2023-11-12T08:42:49.723Z,4.60
2023-11-12T08:57:52.903Z,4.90
2023-11-12T09:12:56.051Z,5.19
2023-11-12T09:27:59.394Z,5.54
2023-11-12T09:43:05.259Z,6.34
2023-11-12T09:58:09.719Z,6.04
2023-11-12T10:13:12.926Z,5.93
2023-11-12T10:28:18.421Z,5.71
2023-11-12T10:43:21.900Z,5.83
2023-11-12T10:58:26.585Z,6.86
2023-11-12T11:13:31.142Z,6.36
2023-11-12T11:28:34.779Z,6.36
2023-11-12T11:43:38.692Z,6.49
2023-11-12T11:58:46.664Z,6.60
2023-11-12T12:13:57.655Z,7.08
2023-11-12T12:29:00.801Z,7.41
2023-11-12T12:44:04.439Z,7.28
2023-11-12T12:59:08.154Z,7.71
2023-11-12T13:14:12.143Z,7.48
2023-11-12T13:29:16.218Z,7.33
2023-11-12T13:44:19.505Z,7.40
2023-11-12T13:59:22.836Z,7.40
2023-11-12T14:14:26.293Z,7.44
2023-11-12T14:29:31.911Z,6.95
2023-11-12T14:44:35.177Z,6.63
2023-11-12T14:59:38.441Z,6.67
2023-11-12T15:14:41.640Z,6.98
2023-11-12T15:29:47.398Z,6.37
2023-11-12T15:44:52.814Z,6.27
2023-11-12T15:59:56.117Z,6.16
2023-11-12T16:14:59.400Z,6.11
2023-11-12T16:30:03.161Z,5.99
2023-11-12T16:45:07.691Z,5.96
2023-11-12T17:00:14.127Z,5.93
2023-11-12T17:15:17.327Z,5.88
2023-11-12T17:30:20.656Z,5.96
2023-11-12T17:45:25.095Z,5.88
2023-11-12T18:00:29.588Z,5.79
2023-11-12T18:15:33.740Z,5.40
2023-11-12T18:30:40.026Z,5.36
2023-11-12T18:45:51.966Z,5.80
2023-11-12T19:01:01.909Z,5.70
2023-11-12T19:16:09.461Z,5.75
2023-11-12T19:31:25.221Z,5.72
2023-11-12T19:46:36.807Z,5.70
2023-11-12T20:01:41.400Z,5.69
2023-11-12T20:16:45.488Z,5.67
2023-11-12T20:31:49.838Z,5.67
2023-11-12T20:46:55.143Z,5.69
2023-11-12T21:02:00.557Z,5.78
2023-11-12T21:17:07.930Z,5.84
2023-11-12T21:32:12.256Z,5.92
2023-11-12T21:47:17.015Z,5.70
2023-11-12T22:02:20.739Z,5.68
2023-11-12T22:17:26.093Z,5.47
2023-11-12T22:32:29.304Z,5.91
2023-11-12T22:47:33.429Z,5.76
2023-11-12T23:02:36.798Z,6.00
2023-11-12T23:17:40.087Z,5.73
2023-11-12T23:32:43.598Z,5.68
2023-11-12T23:47:47.017Z,5.67
